PWSweather.com
Personal Weather Stations
Station Observations
DW6359
Southwest Cambria, Cambria, WI 53923

Southwest CambriaCambria, WI 53923

Lat: 43.541194, Lon: -89.11275

Elevation: 945

Station Type: Davis Vantage Pro2

http://home.centurytel.net/weathercambria/wxcambria.html

High Low Average
Temperature 41.0°F5.0°C 23.5°F-4.7°C 31.5°F-0.3°C
Dew Point 28.7°F-1.8°C 20.2°F-6.6°C 24.1°F-4.4°C
Winds 13.0 mph 20.9 kmh Calm Calm 4.0 mph WSW6.4 kmh WSW
Wind Gusts 20.0 mph32.2 kmh -- 2.0 mph3.2 kmh
Humidity 92% 53% 75%
Pressure 30.22 in1023.4 mb 29.92 in1013.2 mb -
Precipitation 0.00 in0.0 mm - -
Hour Temp Dew Point Humidity Winds Wind Gusts Pressure Precip Precip Rate Daily Precip Total
12:00 AM 29.5°F-1.4°C 26.1°F-3.3°C 87% Calm Calm -- 29.93 in1013.5 mb 0.00 in0.0 mm 0.00 in0.0 mm 0.00 in0.0 mm
12:05 AM 29.5°F-1.4°C 26.1°F-3.3°C 87% Calm Calm -- 29.93 in1013.5 mb 0.00 in0.0 mm 0.00 in0.0 mm 0.00 in0.0 mm
12:10 AM 29.4°F-1.4°C 26.0°F-3.3°C 87% 2.0 mph WSW3.2 kmh WSW -- 29.93 in1013.5 mb 0.00 in0.0 mm 0.00 in0.0 mm 0.00 in0.0 mm
12:15 AM 29.4°F-1.4°C 26.0°F-3.3°C 87% Calm Calm -- 29.93 in1013.5 mb 0.00 in0.0 mm 0.00 in0.0 mm 0.00 in0.0 mm
12:20 AM 29.4°F-1.4°C 26.0°F-3.3°C 87% 4.0 mph WSW6.4 kmh WSW -- 29.93 in1013.5 mb 0.00 in0.0 mm 0.00 in0.0 mm 0.00 in0.0 mm
12:25 AM 29.4°F-1.4°C 26.0°F-3.3°C 87% 1.0 mph SW1.6 kmh SW -- 29.93 in1013.5 mb 0.00 in0.0 mm 0.00 in0.0 mm 0.00 in0.0 mm
12:30 AM 29.4°F-1.4°C 26.0°F-3.3°C 87% 1.0 mph WSW1.6 kmh WSW -- 29.93 in1013.5 mb 0.00 in0.0 mm 0.00 in0.0 mm 0.00 in0.0 mm
12:35 AM 29.4°F-1.4°C 26.0°F-3.3°C 87% 5.0 mph WSW8.0 kmh WSW -- 29.93 in1013.5 mb 0.00 in0.0 mm 0.00 in0.0 mm 0.00 in0.0 mm
12:40 AM 29.4°F-1.4°C 26.0°F-3.3°C 87% 1.0 mph WSW1.6 kmh WSW -- 29.93 in1013.5 mb 0.00 in0.0 mm 0.00 in0.0 mm 0.00 in0.0 mm
12:45 AM 29.4°F-1.4°C 26.0°F-3.3°C 87% 1.0 mph WSW1.6 kmh WSW -- 29.93 in1013.5 mb 0.00 in0.0 mm 0.00 in0.0 mm 0.00 in0.0 mm
12:50 AM 29.5°F-1.4°C 26.1°F-3.3°C 87% 2.0 mph WSW3.2 kmh WSW 7.0 mph11.3 kmh 29.93 in1013.5 mb 0.00 in0.0 mm 0.00 in0.0 mm 0.00 in0.0 mm
12:55 AM 29.6°F-1.3°C 26.2°F-3.2°C 87% 3.0 mph W4.8 kmh W 7.0 mph11.3 kmh 29.93 in1013.5 mb 0.00 in0.0 mm 0.00 in0.0 mm 0.00 in0.0 mm
01:00 AM 29.6°F-1.3°C 26.2°F-3.2°C 87% 4.0 mph WSW6.4 kmh WSW -- 29.93 in1013.5 mb 0.00 in0.0 mm 0.00 in0.0 mm 0.00 in0.0 mm
01:05 AM 29.6°F-1.3°C 26.2°F-3.2°C 87% 6.0 mph WSW9.7 kmh WSW -- 29.93 in1013.5 mb 0.00 in0.0 mm 0.00 in0.0 mm 0.00 in0.0 mm
01:10 AM 29.7°F-1.3°C 26.3°F-3.2°C 87% 3.0 mph WSW4.8 kmh WSW -- 29.93 in1013.5 mb 0.00 in0.0 mm 0.00 in0.0 mm 0.00 in0.0 mm
01:15 AM 29.7°F-1.3°C 26.3°F-3.2°C 87% 3.0 mph WSW4.8 kmh WSW -- 29.93 in1013.5 mb 0.00 in0.0 mm 0.00 in0.0 mm 0.00 in0.0 mm
01:20 AM 29.6°F-1.3°C 26.2°F-3.2°C 87% 2.0 mph W3.2 kmh W -- 29.93 in1013.5 mb 0.00 in0.0 mm 0.00 in0.0 mm 0.00 in0.0 mm
01:25 AM 29.6°F-1.3°C 26.2°F-3.2°C 87% 2.0 mph WSW3.2 kmh WSW -- 29.93 in1013.5 mb 0.00 in0.0 mm 0.00 in0.0 mm 0.00 in0.0 mm
01:30 AM 29.6°F-1.3°C 26.2°F-3.2°C 87% 4.0 mph WSW6.4 kmh WSW -- 29.93 in1013.5 mb 0.00 in0.0 mm 0.00 in0.0 mm 0.00 in0.0 mm
01:35 AM 29.6°F-1.3°C 26.2°F-3.2°C 87% 2.0 mph WSW3.2 kmh WSW -- 29.93 in1013.5 mb 0.00 in0.0 mm 0.00 in0.0 mm 0.00 in0.0 mm
01:40 AM 29.6°F-1.3°C 26.2°F-3.2°C 87% Calm Calm 6.0 mph9.7 kmh 29.93 in1013.5 mb 0.00 in0.0 mm 0.00 in0.0 mm 0.00 in0.0 mm
01:45 AM 29.6°F-1.3°C 26.2°F-3.2°C 87% 2.0 mph WSW3.2 kmh WSW 6.0 mph9.7 kmh 29.93 in1013.5 mb 0.00 in0.0 mm 0.00 in0.0 mm 0.00 in0.0 mm
01:50 AM 29.6°F-1.3°C 26.2°F-3.2°C 87% 1.0 mph W1.6 kmh W -- 29.93 in1013.5 mb 0.00 in0.0 mm 0.00 in0.0 mm 0.00 in0.0 mm
01:55 AM 29.6°F-1.3°C 26.2°F-3.2°C 87% 4.0 mph WSW6.4 kmh WSW -- 29.93 in1013.5 mb 0.00 in0.0 mm 0.00 in0.0 mm 0.00 in0.0 mm
02:00 AM 29.6°F-1.3°C 26.2°F-3.2°C 87% 4.0 mph WSW6.4 kmh WSW -- 29.93 in1013.5 mb 0.00 in0.0 mm 0.00 in0.0 mm 0.00 in0.0 mm
02:05 AM 29.6°F-1.3°C 26.2°F-3.2°C 87% 3.0 mph SSW4.8 kmh SSW -- 29.92 in1013.2 mb 0.00 in0.0 mm 0.00 in0.0 mm 0.00 in0.0 mm
02:10 AM 29.6°F-1.3°C 26.2°F-3.2°C 87% 4.0 mph W6.4 kmh W -- 29.92 in1013.2 mb 0.00 in0.0 mm 0.00 in0.0 mm 0.00 in0.0 mm
02:15 AM 29.7°F-1.3°C 26.0°F-3.3°C 86% 4.0 mph WSW6.4 kmh WSW -- 29.92 in1013.2 mb 0.00 in0.0 mm 0.00 in0.0 mm 0.00 in0.0 mm
02:20 AM 29.9°F-1.2°C 25.9°F-3.4°C 85% 7.0 mph WSW11.3 kmh WSW -- 29.92 in1013.2 mb 0.00 in0.0 mm 0.00 in0.0 mm 0.00 in0.0 mm
02:25 AM 29.9°F-1.2°C 25.9°F-3.4°C 85% 4.0 mph WSW6.4 kmh WSW -- 29.92 in1013.2 mb 0.00 in0.0 mm 0.00 in0.0 mm 0.00 in0.0 mm
02:30 AM 30.0°F-1.1°C 26.0°F-3.3°C 85% 9.0 mph W14.5 kmh W 10.0 mph16.1 kmh 29.92 in1013.2 mb 0.00 in0.0 mm 0.00 in0.0 mm 0.00 in0.0 mm
02:35 AM 30.0°F-1.1°C 25.8°F-3.4°C 84% 6.0 mph W9.7 kmh W 10.0 mph16.1 kmh 29.92 in1013.2 mb 0.00 in0.0 mm 0.00 in0.0 mm 0.00 in0.0 mm
02:40 AM 30.0°F-1.1°C 25.8°F-3.4°C 84% 7.0 mph W11.3 kmh W -- 29.93 in1013.5 mb 0.00 in0.0 mm 0.00 in0.0 mm 0.00 in0.0 mm
02:45 AM 30.0°F-1.1°C 25.8°F-3.4°C 84% 7.0 mph WSW11.3 kmh WSW -- 29.93 in1013.5 mb 0.00 in0.0 mm 0.00 in0.0 mm 0.00 in0.0 mm
02:50 AM 30.0°F-1.1°C 25.8°F-3.4°C 84% 6.0 mph W9.7 kmh W -- 29.93 in1013.5 mb 0.00 in0.0 mm 0.00 in0.0 mm 0.00 in0.0 mm
02:55 AM 30.0°F-1.1°C 25.8°F-3.4°C 84% 6.0 mph W9.7 kmh W -- 29.94 in1013.9 mb 0.00 in0.0 mm 0.00 in0.0 mm 0.00 in0.0 mm
03:00 AM 30.1°F-1.1°C 25.6°F-3.6°C 83% 9.0 mph W14.5 kmh W -- 29.94 in1013.9 mb 0.00 in0.0 mm 0.00 in0.0 mm 0.00 in0.0 mm
03:05 AM 30.1°F-1.1°C 25.6°F-3.6°C 83% 7.0 mph WSW11.3 kmh WSW -- 29.94 in1013.9 mb 0.00 in0.0 mm 0.00 in0.0 mm 0.00 in0.0 mm
03:10 AM 30.1°F-1.1°C 25.6°F-3.6°C 83% 4.0 mph WNW6.4 kmh WNW -- 29.94 in1013.9 mb 0.00 in0.0 mm 0.00 in0.0 mm 0.00 in0.0 mm
03:15 AM 30.1°F-1.1°C 25.6°F-3.6°C 83% 6.0 mph W9.7 kmh W -- 29.94 in1013.9 mb 0.00 in0.0 mm 0.00 in0.0 mm 0.00 in0.0 mm
03:20 AM 30.1°F-1.1°C 25.3°F-3.7°C 82% 9.0 mph WSW14.5 kmh WSW 11.0 mph17.7 kmh 29.94 in1013.9 mb 0.00 in0.0 mm 0.00 in0.0 mm 0.00 in0.0 mm
03:25 AM 30.0°F-1.1°C 25.2°F-3.8°C 82% 5.0 mph W8.0 kmh W 11.0 mph17.7 kmh 29.94 in1013.9 mb 0.00 in0.0 mm 0.00 in0.0 mm 0.00 in0.0 mm
03:30 AM 29.9°F-1.2°C 25.1°F-3.8°C 82% 7.0 mph W11.3 kmh W -- 29.94 in1013.9 mb 0.00 in0.0 mm 0.00 in0.0 mm 0.00 in0.0 mm
03:35 AM 29.9°F-1.2°C 25.1°F-3.8°C 82% 5.0 mph W8.0 kmh W -- 29.95 in1014.2 mb 0.00 in0.0 mm 0.00 in0.0 mm 0.00 in0.0 mm
03:40 AM 29.7°F-1.3°C 24.9°F-3.9°C 82% 5.0 mph W8.0 kmh W -- 29.94 in1013.9 mb 0.00 in0.0 mm 0.00 in0.0 mm 0.00 in0.0 mm
03:45 AM 29.6°F-1.3°C 24.8°F-4.0°C 82% 5.0 mph W8.0 kmh W -- 29.95 in1014.2 mb 0.00 in0.0 mm 0.00 in0.0 mm 0.00 in0.0 mm
03:50 AM 29.4°F-1.4°C 24.6°F-4.1°C 82% 5.0 mph W8.0 kmh W -- 29.95 in1014.2 mb 0.00 in0.0 mm 0.00 in0.0 mm 0.00 in0.0 mm
03:55 AM 29.3°F-1.5°C 24.8°F-4.0°C 83% 3.0 mph WSW4.8 kmh WSW -- 29.95 in1014.2 mb 0.00 in0.0 mm 0.00 in0.0 mm 0.00 in0.0 mm
04:00 AM 29.2°F-1.6°C 24.7°F-4.1°C 83% 3.0 mph W4.8 kmh W -- 29.95 in1014.2 mb 0.00 in0.0 mm 0.00 in0.0 mm 0.00 in0.0 mm
04:05 AM 29.2°F-1.6°C 24.7°F-4.1°C 83% 7.0 mph W11.3 kmh W -- 29.95 in1014.2 mb 0.00 in0.0 mm 0.00 in0.0 mm 0.00 in0.0 mm
04:10 AM 29.0°F-1.7°C 24.5°F-4.2°C 83% 7.0 mph WSW11.3 kmh WSW 8.0 mph12.9 kmh 29.95 in1014.2 mb 0.00 in0.0 mm 0.00 in0.0 mm 0.00 in0.0 mm
04:15 AM 28.9°F-1.7°C 24.4°F-4.2°C 83% 5.0 mph WNW8.0 kmh WNW 8.0 mph12.9 kmh 29.95 in1014.2 mb 0.00 in0.0 mm 0.00 in0.0 mm 0.00 in0.0 mm
04:20 AM 28.7°F-1.8°C 24.2°F-4.3°C 83% 5.0 mph W8.0 kmh W -- 29.95 in1014.2 mb 0.00 in0.0 mm 0.00 in0.0 mm 0.00 in0.0 mm
04:25 AM 28.4°F-2.0°C 23.9°F-4.5°C 83% 5.0 mph W8.0 kmh W -- 29.96 in1014.6 mb 0.00 in0.0 mm 0.00 in0.0 mm 0.00 in0.0 mm
04:30 AM 28.1°F-2.2°C 23.6°F-4.7°C 83% 6.0 mph W9.7 kmh W -- 29.96 in1014.6 mb 0.00 in0.0 mm 0.00 in0.0 mm 0.00 in0.0 mm
04:35 AM 27.8°F-2.3°C 23.3°F-4.8°C 83% 2.0 mph W3.2 kmh W -- 29.96 in1014.6 mb 0.00 in0.0 mm 0.00 in0.0 mm 0.00 in0.0 mm
04:40 AM 27.4°F-2.6°C 23.2°F-4.9°C 84% 4.0 mph W6.4 kmh W -- 29.96 in1014.6 mb 0.00 in0.0 mm 0.00 in0.0 mm 0.00 in0.0 mm
04:45 AM 27.2°F-2.7°C 23.0°F-5.0°C 84% 4.0 mph WSW6.4 kmh WSW -- 29.96 in1014.6 mb 0.00 in0.0 mm 0.00 in0.0 mm 0.00 in0.0 mm
04:50 AM 27.0°F-2.8°C 22.8°F-5.1°C 84% 3.0 mph WSW4.8 kmh WSW -- 29.97 in1014.9 mb 0.00 in0.0 mm 0.00 in0.0 mm 0.00 in0.0 mm
04:55 AM 26.7°F-2.9°C 22.5°F-5.3°C 84% 2.0 mph WSW3.2 kmh WSW -- 29.97 in1014.9 mb 0.00 in0.0 mm 0.00 in0.0 mm 0.00 in0.0 mm
05:00 AM 26.4°F-3.1°C 22.2°F-5.4°C 84% 2.0 mph WSW3.2 kmh WSW 5.0 mph8.0 kmh 29.97 in1014.9 mb 0.00 in0.0 mm 0.00 in0.0 mm 0.00 in0.0 mm
05:05 AM 26.2°F-3.2°C 22.3°F-5.4°C 85% 2.0 mph WSW3.2 kmh WSW 5.0 mph8.0 kmh 29.97 in1014.9 mb 0.00 in0.0 mm 0.00 in0.0 mm 0.00 in0.0 mm
05:10 AM 26.0°F-3.3°C 22.1°F-5.5°C 85% Calm Calm -- 29.97 in1014.9 mb 0.00 in0.0 mm 0.00 in0.0 mm 0.00 in0.0 mm
05:15 AM 25.8°F-3.4°C 23.8°F-4.6°C 92% Calm Calm -- 29.97 in1014.9 mb 0.00 in0.0 mm 0.00 in0.0 mm 0.00 in0.0 mm
05:20 AM 25.7°F-3.5°C 21.8°F-5.7°C 85% Calm Calm -- 29.97 in1014.9 mb 0.00 in0.0 mm 0.00 in0.0 mm 0.00 in0.0 mm
05:25 AM 25.5°F-3.6°C 21.9°F-5.6°C 86% Calm Calm -- 29.97 in1014.9 mb 0.00 in0.0 mm 0.00 in0.0 mm 0.00 in0.0 mm
05:30 AM 25.2°F-3.8°C 21.6°F-5.8°C 86% Calm Calm -- 29.98 in1015.2 mb 0.00 in0.0 mm 0.00 in0.0 mm 0.00 in0.0 mm
05:35 AM 24.7°F-4.1°C 21.1°F-6.1°C 86% Calm Calm -- 29.98 in1015.2 mb 0.00 in0.0 mm 0.00 in0.0 mm 0.00 in0.0 mm
05:40 AM 24.3°F-4.3°C 20.7°F-6.3°C 86% Calm Calm -- 29.98 in1015.2 mb 0.00 in0.0 mm 0.00 in0.0 mm 0.00 in0.0 mm
05:45 AM 24.0°F-4.4°C 20.4°F-6.4°C 86% Calm Calm -- 29.98 in1015.2 mb 0.00 in0.0 mm 0.00 in0.0 mm 0.00 in0.0 mm
05:50 AM 23.8°F-4.6°C 20.5°F-6.4°C 87% Calm Calm -- 29.98 in1015.2 mb 0.00 in0.0 mm 0.00 in0.0 mm 0.00 in0.0 mm
05:55 AM 23.8°F-4.6°C 20.5°F-6.4°C 87% Calm Calm -- 29.99 in1015.6 mb 0.00 in0.0 mm 0.00 in0.0 mm 0.00 in0.0 mm
06:00 AM 23.9°F-4.5°C 20.6°F-6.3°C 87% Calm Calm -- 29.99 in1015.6 mb 0.00 in0.0 mm 0.00 in0.0 mm 0.00 in0.0 mm
06:05 AM 23.9°F-4.5°C 20.6°F-6.3°C 87% Calm Calm -- 29.99 in1015.6 mb 0.00 in0.0 mm 0.00 in0.0 mm 0.00 in0.0 mm
06:10 AM 23.8°F-4.6°C 20.8°F-6.2°C 88% Calm Calm -- 29.99 in1015.6 mb 0.00 in0.0 mm 0.00 in0.0 mm 0.00 in0.0 mm
06:15 AM 23.6°F-4.7°C 20.3°F-6.5°C 87% Calm Calm -- 30.00 in1015.9 mb 0.00 in0.0 mm 0.00 in0.0 mm 0.00 in0.0 mm
06:20 AM 23.5°F-4.7°C 20.2°F-6.6°C 87% Calm Calm -- 30.00 in1015.9 mb 0.00 in0.0 mm 0.00 in0.0 mm 0.00 in0.0 mm
06:25 AM 23.6°F-4.7°C 20.6°F-6.3°C 88% Calm Calm -- 30.00 in1015.9 mb 0.00 in0.0 mm 0.00 in0.0 mm 0.00 in0.0 mm
06:30 AM 23.6°F-4.7°C 20.6°F-6.3°C 88% 4.0 mph WSW6.4 kmh WSW -- 30.01 in1016.3 mb 0.00 in0.0 mm 0.00 in0.0 mm 0.00 in0.0 mm
06:35 AM 24.0°F-4.4°C 21.0°F-6.1°C 88% 9.0 mph WNW14.5 kmh WNW -- 30.01 in1016.3 mb 0.00 in0.0 mm 0.00 in0.0 mm 0.00 in0.0 mm
06:40 AM 25.0°F-3.9°C 22.0°F-5.6°C 88% 5.0 mph WSW8.0 kmh WSW 12.0 mph19.3 kmh 30.01 in1016.3 mb 0.00 in0.0 mm 0.00 in0.0 mm 0.00 in0.0 mm
06:45 AM 25.6°F-3.6°C 22.5°F-5.3°C 88% 5.0 mph WSW8.0 kmh WSW 12.0 mph19.3 kmh 30.01 in1016.3 mb 0.00 in0.0 mm 0.00 in0.0 mm 0.00 in0.0 mm
06:50 AM 26.5°F-3.1°C 23.4°F-4.8°C 88% 6.0 mph WSW9.7 kmh WSW -- 30.02 in1016.6 mb 0.00 in0.0 mm 0.00 in0.0 mm 0.00 in0.0 mm
06:55 AM 26.7°F-2.9°C 23.4°F-4.8°C 87% 11.0 mph W17.7 kmh W -- 30.02 in1016.6 mb 0.00 in0.0 mm 0.00 in0.0 mm 0.00 in0.0 mm
07:00 AM 26.9°F-2.8°C 23.6°F-4.7°C 87% 3.0 mph WSW4.8 kmh WSW -- 30.02 in1016.6 mb 0.00 in0.0 mm 0.00 in0.0 mm 0.00 in0.0 mm
07:05 AM 26.9°F-2.8°C 23.6°F-4.7°C 87% 6.0 mph W9.7 kmh W -- 30.02 in1016.6 mb 0.00 in0.0 mm 0.00 in0.0 mm 0.00 in0.0 mm
07:10 AM 27.0°F-2.8°C 23.7°F-4.6°C 87% 5.0 mph W8.0 kmh W -- 30.02 in1016.6 mb 0.00 in0.0 mm 0.00 in0.0 mm 0.00 in0.0 mm
07:15 AM 27.0°F-2.8°C 23.4°F-4.8°C 86% 6.0 mph WNW9.7 kmh WNW -- 30.02 in1016.6 mb 0.00 in0.0 mm 0.00 in0.0 mm 0.00 in0.0 mm
07:20 AM 27.0°F-2.8°C 23.4°F-4.8°C 86% 8.0 mph W12.9 kmh W -- 30.02 in1016.6 mb 0.00 in0.0 mm 0.00 in0.0 mm 0.00 in0.0 mm
07:25 AM 27.0°F-2.8°C 23.4°F-4.8°C 86% 8.0 mph WSW12.9 kmh WSW -- 30.02 in1016.6 mb 0.00 in0.0 mm 0.00 in0.0 mm 0.00 in0.0 mm
07:30 AM 27.0°F-2.8°C 23.4°F-4.8°C 86% 4.0 mph WSW6.4 kmh WSW 13.0 mph20.9 kmh 30.02 in1016.6 mb 0.00 in0.0 mm 0.00 in0.0 mm 0.00 in0.0 mm
07:35 AM 27.0°F-2.8°C 23.4°F-4.8°C 86% 7.0 mph W11.3 kmh W 13.0 mph20.9 kmh 30.02 in1016.6 mb 0.00 in0.0 mm 0.00 in0.0 mm 0.00 in0.0 mm
07:40 AM 26.9°F-2.8°C 23.3°F-4.8°C 86% 8.0 mph W12.9 kmh W -- 30.02 in1016.6 mb 0.00 in0.0 mm 0.00 in0.0 mm 0.00 in0.0 mm
07:45 AM 26.8°F-2.9°C 23.2°F-4.9°C 86% 8.0 mph W12.9 kmh W -- 30.02 in1016.6 mb 0.00 in0.0 mm 0.00 in0.0 mm 0.00 in0.0 mm
07:50 AM 26.7°F-2.9°C 23.1°F-4.9°C 86% 5.0 mph WSW8.0 kmh WSW -- 30.02 in1016.6 mb 0.00 in0.0 mm 0.00 in0.0 mm 0.00 in0.0 mm
07:55 AM 26.6°F-3.0°C 23.0°F-5.0°C 86% 4.0 mph WSW6.4 kmh WSW -- 30.02 in1016.6 mb 0.00 in0.0 mm 0.00 in0.0 mm 0.00 in0.0 mm
08:00 AM 26.5°F-3.1°C 22.9°F-5.1°C 86% 6.0 mph WSW9.7 kmh WSW -- 30.02 in1016.6 mb 0.00 in0.0 mm 0.00 in0.0 mm 0.00 in0.0 mm
08:05 AM 26.4°F-3.1°C 22.8°F-5.1°C 86% 2.0 mph WSW3.2 kmh WSW -- 30.02 in1016.6 mb 0.00 in0.0 mm 0.00 in0.0 mm 0.00 in0.0 mm
08:10 AM 26.4°F-3.1°C 23.1°F-4.9°C 87% 6.0 mph W9.7 kmh W -- 30.02 in1016.6 mb 0.00 in0.0 mm 0.00 in0.0 mm 0.00 in0.0 mm
08:15 AM 26.5°F-3.1°C 23.2°F-4.9°C 87% 6.0 mph W9.7 kmh W -- 30.02 in1016.6 mb 0.00 in0.0 mm 0.00 in0.0 mm 0.00 in0.0 mm
08:20 AM 26.5°F-3.1°C 23.2°F-4.9°C 87% 4.0 mph WSW6.4 kmh WSW 8.0 mph12.9 kmh 30.02 in1016.6 mb 0.00 in0.0 mm 0.00 in0.0 mm 0.00 in0.0 mm
08:25 AM 26.4°F-3.1°C 23.1°F-4.9°C 87% 5.0 mph WSW8.0 kmh WSW 8.0 mph12.9 kmh 30.02 in1016.6 mb 0.00 in0.0 mm 0.00 in0.0 mm 0.00 in0.0 mm
08:30 AM 26.3°F-3.2°C 23.0°F-5.0°C 87% 6.0 mph WSW9.7 kmh WSW -- 30.03 in1016.9 mb 0.00 in0.0 mm 0.00 in0.0 mm 0.00 in0.0 mm
08:35 AM 26.3°F-3.2°C 23.0°F-5.0°C 87% 2.0 mph WSW3.2 kmh WSW -- 30.02 in1016.6 mb 0.00 in0.0 mm 0.00 in0.0 mm 0.00 in0.0 mm
08:40 AM 26.1°F-3.3°C 22.8°F-5.1°C 87% 2.0 mph WSW3.2 kmh WSW -- 30.03 in1016.9 mb 0.00 in0.0 mm 0.00 in0.0 mm 0.00 in0.0 mm
08:45 AM 26.0°F-3.3°C 22.7°F-5.2°C 87% 4.0 mph WSW6.4 kmh WSW -- 30.03 in1016.9 mb 0.00 in0.0 mm 0.00 in0.0 mm 0.00 in0.0 mm
08:50 AM 25.9°F-3.4°C 22.6°F-5.2°C 87% 3.0 mph WSW4.8 kmh WSW -- 30.03 in1016.9 mb 0.00 in0.0 mm 0.00 in0.0 mm 0.00 in0.0 mm
08:55 AM 25.7°F-3.5°C 22.4°F-5.3°C 87% 3.0 mph WSW4.8 kmh WSW -- 30.03 in1016.9 mb 0.00 in0.0 mm 0.00 in0.0 mm 0.00 in0.0 mm
09:00 AM 25.6°F-3.6°C 22.3°F-5.4°C 87% 4.0 mph WSW6.4 kmh WSW -- 30.03 in1016.9 mb 0.00 in0.0 mm 0.00 in0.0 mm 0.00 in0.0 mm
09:05 AM 25.6°F-3.6°C 22.3°F-5.4°C 87% 1.0 mph WSW1.6 kmh WSW -- 30.02 in1016.6 mb 0.00 in0.0 mm 0.00 in0.0 mm 0.00 in0.0 mm
09:10 AM 25.6°F-3.6°C 22.3°F-5.4°C 87% Calm Calm 5.0 mph8.0 kmh 30.03 in1016.9 mb 0.00 in0.0 mm 0.00 in0.0 mm 0.00 in0.0 mm
09:15 AM 25.6°F-3.6°C 22.3°F-5.4°C 87% 3.0 mph WSW4.8 kmh WSW 5.0 mph8.0 kmh 30.03 in1016.9 mb 0.00 in0.0 mm 0.00 in0.0 mm 0.00 in0.0 mm
09:20 AM 25.4°F-3.7°C 22.1°F-5.5°C 87% 2.0 mph WSW3.2 kmh WSW -- 30.03 in1016.9 mb 0.00 in0.0 mm 0.00 in0.0 mm 0.00 in0.0 mm
09:25 AM 25.5°F-3.6°C 22.2°F-5.4°C 87% 3.0 mph WSW4.8 kmh WSW -- 30.02 in1016.6 mb 0.00 in0.0 mm 0.00 in0.0 mm 0.00 in0.0 mm
09:30 AM 25.6°F-3.6°C 22.3°F-5.4°C 87% 2.0 mph WSW3.2 kmh WSW -- 30.02 in1016.6 mb 0.00 in0.0 mm 0.00 in0.0 mm 0.00 in0.0 mm
09:35 AM 25.8°F-3.4°C 22.5°F-5.3°C 87% 2.0 mph WSW3.2 kmh WSW -- 30.02 in1016.6 mb 0.00 in0.0 mm 0.00 in0.0 mm 0.00 in0.0 mm
09:40 AM 26.1°F-3.3°C 23.0°F-5.0°C 88% 3.0 mph WSW4.8 kmh WSW -- 30.02 in1016.6 mb 0.00 in0.0 mm 0.00 in0.0 mm 0.00 in0.0 mm
09:45 AM 26.5°F-3.1°C 23.2°F-4.9°C 87% 1.0 mph SW1.6 kmh SW -- 30.02 in1016.6 mb 0.00 in0.0 mm 0.00 in0.0 mm 0.00 in0.0 mm
09:50 AM 26.8°F-2.9°C 23.5°F-4.7°C 87% 3.0 mph SW4.8 kmh SW -- 30.02 in1016.6 mb 0.00 in0.0 mm 0.00 in0.0 mm 0.00 in0.0 mm
09:55 AM 27.1°F-2.7°C 23.8°F-4.6°C 87% 3.0 mph SW4.8 kmh SW -- 30.02 in1016.6 mb 0.00 in0.0 mm 0.00 in0.0 mm 0.00 in0.0 mm
10:00 AM 27.5°F-2.5°C 24.1°F-4.4°C 87% 2.0 mph SW3.2 kmh SW 6.0 mph9.7 kmh 30.02 in1016.6 mb 0.00 in0.0 mm 0.00 in0.0 mm 0.00 in0.0 mm
10:05 AM 27.9°F-2.3°C 24.5°F-4.2°C 87% 4.0 mph SW6.4 kmh SW 6.0 mph9.7 kmh 30.02 in1016.6 mb 0.00 in0.0 mm 0.00 in0.0 mm 0.00 in0.0 mm
10:10 AM 28.3°F-2.1°C 24.7°F-4.1°C 86% 1.0 mph WSW1.6 kmh WSW -- 30.02 in1016.6 mb 0.00 in0.0 mm 0.00 in0.0 mm 0.00 in0.0 mm
10:15 AM 28.6°F-1.9°C 25.0°F-3.9°C 86% 2.0 mph WSW3.2 kmh WSW -- 30.02 in1016.6 mb 0.00 in0.0 mm 0.00 in0.0 mm 0.00 in0.0 mm
10:20 AM 29.0°F-1.7°C 25.3°F-3.7°C 86% 3.0 mph WSW4.8 kmh WSW -- 30.02 in1016.6 mb 0.00 in0.0 mm 0.00 in0.0 mm 0.00 in0.0 mm
10:25 AM 29.4°F-1.4°C 25.5°F-3.6°C 85% 6.0 mph WSW9.7 kmh WSW -- 30.03 in1016.9 mb 0.00 in0.0 mm 0.00 in0.0 mm 0.00 in0.0 mm
10:30 AM 29.7°F-1.3°C 25.8°F-3.4°C 85% 4.0 mph SW6.4 kmh SW -- 30.02 in1016.6 mb 0.00 in0.0 mm 0.00 in0.0 mm 0.00 in0.0 mm
10:35 AM 30.1°F-1.1°C 25.9°F-3.4°C 84% 7.0 mph WSW11.3 kmh WSW -- 30.03 in1016.9 mb 0.00 in0.0 mm 0.00 in0.0 mm 0.00 in0.0 mm
10:40 AM 30.6°F-0.8°C 26.4°F-3.1°C 84% 9.0 mph WSW14.5 kmh WSW -- 30.03 in1016.9 mb 0.00 in0.0 mm 0.00 in0.0 mm 0.00 in0.0 mm
10:45 AM 31.1°F-0.5°C 26.6°F-3.0°C 83% 3.0 mph WSW4.8 kmh WSW -- 30.03 in1016.9 mb 0.00 in0.0 mm 0.00 in0.0 mm 0.00 in0.0 mm
10:50 AM 31.5°F-0.3°C 26.7°F-2.9°C 82% 5.0 mph W8.0 kmh W 11.0 mph17.7 kmh 30.02 in1016.6 mb 0.00 in0.0 mm 0.00 in0.0 mm 0.00 in0.0 mm
10:55 AM 31.7°F-0.2°C 26.8°F-2.9°C 82% 8.0 mph SW12.9 kmh SW 11.0 mph17.7 kmh 30.03 in1016.9 mb 0.00 in0.0 mm 0.00 in0.0 mm 0.00 in0.0 mm
11:00 AM 31.9°F-0.1°C 27.0°F-2.8°C 82% 6.0 mph SW9.7 kmh SW -- 30.03 in1016.9 mb 0.00 in0.0 mm 0.00 in0.0 mm 0.00 in0.0 mm
11:05 AM 32.3°F0.2°C 27.1°F-2.7°C 81% 5.0 mph SW8.0 kmh SW -- 30.03 in1016.9 mb 0.00 in0.0 mm 0.00 in0.0 mm 0.00 in0.0 mm
11:10 AM 32.6°F0.3°C 27.4°F-2.6°C 81% 7.0 mph WSW11.3 kmh WSW -- 30.03 in1016.9 mb 0.00 in0.0 mm 0.00 in0.0 mm 0.00 in0.0 mm
11:15 AM 32.8°F0.4°C 27.3°F-2.6°C 80% 2.0 mph SW3.2 kmh SW -- 30.04 in1017.3 mb 0.00 in0.0 mm 0.00 in0.0 mm 0.00 in0.0 mm
11:20 AM 33.1°F0.6°C 27.3°F-2.6°C 79% 4.0 mph WSW6.4 kmh WSW -- 30.04 in1017.3 mb 0.00 in0.0 mm 0.00 in0.0 mm 0.00 in0.0 mm
11:25 AM 33.4°F0.8°C 27.6°F-2.4°C 79% 3.0 mph SW4.8 kmh SW -- 30.03 in1016.9 mb 0.00 in0.0 mm 0.00 in0.0 mm 0.00 in0.0 mm
11:30 AM 33.7°F0.9°C 27.6°F-2.4°C 78% 8.0 mph SW12.9 kmh SW -- 30.03 in1016.9 mb 0.00 in0.0 mm 0.00 in0.0 mm 0.00 in0.0 mm
11:35 AM 33.8°F1.0°C 27.4°F-2.6°C 77% 9.0 mph WSW14.5 kmh WSW -- 30.03 in1016.9 mb 0.00 in0.0 mm 0.00 in0.0 mm 0.00 in0.0 mm
11:40 AM 34.0°F1.1°C 27.6°F-2.4°C 77% 4.0 mph SW6.4 kmh SW 15.0 mph24.1 kmh 30.02 in1016.6 mb 0.00 in0.0 mm 0.00 in0.0 mm 0.00 in0.0 mm
11:45 AM 34.2°F1.2°C 27.8°F-2.3°C 77% 3.0 mph SW4.8 kmh SW 15.0 mph24.1 kmh 30.02 in1016.6 mb 0.00 in0.0 mm 0.00 in0.0 mm 0.00 in0.0 mm
11:50 AM 34.5°F1.4°C 27.7°F-2.4°C 76% 4.0 mph SSW6.4 kmh SSW -- 30.02 in1016.6 mb 0.00 in0.0 mm 0.00 in0.0 mm 0.00 in0.0 mm
11:55 AM 34.8°F1.6°C 28.0°F-2.2°C 76% 4.0 mph SW6.4 kmh SW -- 30.02 in1016.6 mb 0.00 in0.0 mm 0.00 in0.0 mm 0.00 in0.0 mm
12:00 PM 35.3°F1.8°C 28.2°F-2.1°C 75% 2.0 mph SW3.2 kmh SW -- 30.02 in1016.6 mb 0.00 in0.0 mm 0.00 in0.0 mm 0.00 in0.0 mm
12:05 PM 35.6°F2.0°C 28.1°F-2.2°C 74% 6.0 mph WSW9.7 kmh WSW -- 30.02 in1016.6 mb 0.00 in0.0 mm 0.00 in0.0 mm 0.00 in0.0 mm
12:10 PM 36.0°F2.2°C 28.5°F-1.9°C 74% 6.0 mph W9.7 kmh W -- 30.02 in1016.6 mb 0.00 in0.0 mm 0.00 in0.0 mm 0.00 in0.0 mm
12:15 PM 36.5°F2.5°C 28.7°F-1.8°C 73% 6.0 mph SW9.7 kmh SW -- 30.02 in1016.6 mb 0.00 in0.0 mm 0.00 in0.0 mm 0.00 in0.0 mm
12:20 PM 36.8°F2.7°C 28.3°F-2.1°C 71% 5.0 mph WSW8.0 kmh WSW -- 30.02 in1016.6 mb 0.00 in0.0 mm 0.00 in0.0 mm 0.00 in0.0 mm
12:25 PM 37.1°F2.8°C 28.6°F-1.9°C 71% 1.0 mph WSW1.6 kmh WSW -- 30.02 in1016.6 mb 0.00 in0.0 mm 0.00 in0.0 mm 0.00 in0.0 mm
12:30 PM 37.7°F3.2°C 28.5°F-1.9°C 69% 5.0 mph NW8.0 kmh NW 20.0 mph32.2 kmh 30.02 in1016.6 mb 0.00 in0.0 mm 0.00 in0.0 mm 0.00 in0.0 mm
12:35 PM 37.9°F3.3°C 27.9°F-2.3°C 67% 8.0 mph W12.9 kmh W 20.0 mph32.2 kmh 30.02 in1016.6 mb 0.00 in0.0 mm 0.00 in0.0 mm 0.00 in0.0 mm
12:40 PM 37.6°F3.1°C 27.7°F-2.4°C 67% 9.0 mph WSW14.5 kmh WSW -- 30.02 in1016.6 mb 0.00 in0.0 mm 0.00 in0.0 mm 0.00 in0.0 mm
12:45 PM 37.5°F3.1°C 27.6°F-2.4°C 67% 6.0 mph W9.7 kmh W -- 30.02 in1016.6 mb 0.00 in0.0 mm 0.00 in0.0 mm 0.00 in0.0 mm
12:50 PM 37.6°F3.1°C 28.0°F-2.2°C 68% 9.0 mph WSW14.5 kmh WSW -- 30.02 in1016.6 mb 0.00 in0.0 mm 0.00 in0.0 mm 0.00 in0.0 mm
12:55 PM 38.1°F3.4°C 28.1°F-2.2°C 67% 7.0 mph WSW11.3 kmh WSW -- 30.02 in1016.6 mb 0.00 in0.0 mm 0.00 in0.0 mm 0.00 in0.0 mm
01:00 PM 38.4°F3.6°C 28.0°F-2.2°C 66% 8.0 mph WSW12.9 kmh WSW -- 30.01 in1016.3 mb 0.00 in0.0 mm 0.00 in0.0 mm 0.00 in0.0 mm
01:05 PM 38.4°F3.6°C 28.0°F-2.2°C 66% 7.0 mph WSW11.3 kmh WSW -- 30.01 in1016.3 mb 0.00 in0.0 mm 0.00 in0.0 mm 0.00 in0.0 mm
01:10 PM 38.4°F3.6°C 27.7°F-2.4°C 65% 7.0 mph SW11.3 kmh SW -- 30.01 in1016.3 mb 0.00 in0.0 mm 0.00 in0.0 mm 0.00 in0.0 mm
01:15 PM 38.8°F3.8°C 28.1°F-2.2°C 65% 10.0 mph W16.1 kmh W -- 30.01 in1016.3 mb 0.00 in0.0 mm 0.00 in0.0 mm 0.00 in0.0 mm
01:20 PM 39.1°F3.9°C 27.6°F-2.4°C 63% 13.0 mph W20.9 kmh W 17.0 mph27.4 kmh 30.01 in1016.3 mb 0.00 in0.0 mm 0.00 in0.0 mm 0.00 in0.0 mm
01:25 PM 39.3°F4.1°C 27.8°F-2.3°C 63% 6.0 mph W9.7 kmh W 17.0 mph27.4 kmh 30.00 in1015.9 mb 0.00 in0.0 mm 0.00 in0.0 mm 0.00 in0.0 mm
01:30 PM 39.7°F4.3°C 28.2°F-2.1°C 63% 11.0 mph WSW17.7 kmh WSW -- 30.00 in1015.9 mb 0.00 in0.0 mm 0.00 in0.0 mm 0.00 in0.0 mm
01:35 PM 39.5°F4.2°C 27.6°F-2.4°C 62% 6.0 mph WSW9.7 kmh WSW -- 30.00 in1015.9 mb 0.00 in0.0 mm 0.00 in0.0 mm 0.00 in0.0 mm
01:40 PM 39.4°F4.1°C 27.1°F-2.7°C 61% 10.0 mph WSW16.1 kmh WSW -- 30.00 in1015.9 mb 0.00 in0.0 mm 0.00 in0.0 mm 0.00 in0.0 mm
01:45 PM 39.3°F4.1°C 27.0°F-2.8°C 61% 8.0 mph W12.9 kmh W -- 30.00 in1015.9 mb 0.00 in0.0 mm 0.00 in0.0 mm 0.00 in0.0 mm
01:50 PM 39.5°F4.2°C 27.2°F-2.7°C 61% 9.0 mph WSW14.5 kmh WSW -- 30.00 in1015.9 mb 0.00 in0.0 mm 0.00 in0.0 mm 0.00 in0.0 mm
01:55 PM 39.5°F4.2°C 27.2°F-2.7°C 61% 10.0 mph WNW16.1 kmh WNW -- 30.00 in1015.9 mb 0.00 in0.0 mm 0.00 in0.0 mm 0.00 in0.0 mm
02:00 PM 39.6°F4.2°C 26.9°F-2.8°C 60% 12.0 mph WNW19.3 kmh WNW -- 30.00 in1015.9 mb 0.00 in0.0 mm 0.00 in0.0 mm 0.00 in0.0 mm
02:05 PM 39.6°F4.2°C 26.9°F-2.8°C 60% 10.0 mph W16.1 kmh W -- 30.00 in1015.9 mb 0.00 in0.0 mm 0.00 in0.0 mm 0.00 in0.0 mm
02:10 PM 39.6°F4.2°C 27.3°F-2.6°C 61% 12.0 mph W19.3 kmh W 19.0 mph30.6 kmh 30.01 in1016.3 mb 0.00 in0.0 mm 0.00 in0.0 mm 0.00 in0.0 mm
02:15 PM 39.7°F4.3°C 27.0°F-2.8°C 60% 10.0 mph W16.1 kmh W 19.0 mph30.6 kmh 30.01 in1016.3 mb 0.00 in0.0 mm 0.00 in0.0 mm 0.00 in0.0 mm
02:20 PM 39.5°F4.2°C 26.8°F-2.9°C 60% 10.0 mph WNW16.1 kmh WNW -- 30.01 in1016.3 mb 0.00 in0.0 mm 0.00 in0.0 mm 0.00 in0.0 mm
02:25 PM 39.3°F4.1°C 27.0°F-2.8°C 61% 6.0 mph WSW9.7 kmh WSW -- 30.01 in1016.3 mb 0.00 in0.0 mm 0.00 in0.0 mm 0.00 in0.0 mm
02:30 PM 39.5°F4.2°C 27.2°F-2.7°C 61% 7.0 mph W11.3 kmh W -- 30.01 in1016.3 mb 0.00 in0.0 mm 0.00 in0.0 mm 0.00 in0.0 mm
02:35 PM 39.6°F4.2°C 26.9°F-2.8°C 60% 12.0 mph WNW19.3 kmh WNW -- 30.02 in1016.6 mb 0.00 in0.0 mm 0.00 in0.0 mm 0.00 in0.0 mm
02:40 PM 39.8°F4.3°C 27.5°F-2.5°C 61% 7.0 mph WSW11.3 kmh WSW -- 30.02 in1016.6 mb 0.00 in0.0 mm 0.00 in0.0 mm 0.00 in0.0 mm
02:45 PM 40.0°F4.4°C 27.3°F-2.6°C 60% 10.0 mph WSW16.1 kmh WSW -- 30.02 in1016.6 mb 0.00 in0.0 mm 0.00 in0.0 mm 0.00 in0.0 mm
02:50 PM 40.1°F4.5°C 26.9°F-2.8°C 59% 3.0 mph W4.8 kmh W -- 30.02 in1016.6 mb 0.00 in0.0 mm 0.00 in0.0 mm 0.00 in0.0 mm
02:55 PM 40.2°F4.6°C 26.6°F-3.0°C 58% 4.0 mph WNW6.4 kmh WNW -- 30.02 in1016.6 mb 0.00 in0.0 mm 0.00 in0.0 mm 0.00 in0.0 mm
03:00 PM 40.3°F4.6°C 27.1°F-2.7°C 59% 7.0 mph WSW11.3 kmh WSW 20.0 mph32.2 kmh 30.02 in1016.6 mb 0.00 in0.0 mm 0.00 in0.0 mm 0.00 in0.0 mm
03:05 PM 40.2°F4.6°C 26.6°F-3.0°C 58% 7.0 mph WSW11.3 kmh WSW 20.0 mph32.2 kmh 30.02 in1016.6 mb 0.00 in0.0 mm 0.00 in0.0 mm 0.00 in0.0 mm
03:10 PM 39.8°F4.3°C 26.2°F-3.2°C 58% 9.0 mph WNW14.5 kmh WNW -- 30.02 in1016.6 mb 0.00 in0.0 mm 0.00 in0.0 mm 0.00 in0.0 mm
03:15 PM 39.6°F4.2°C 26.1°F-3.3°C 58% 9.0 mph W14.5 kmh W -- 30.02 in1016.6 mb 0.00 in0.0 mm 0.00 in0.0 mm 0.00 in0.0 mm
03:20 PM 39.5°F4.2°C 26.4°F-3.1°C 59% 7.0 mph W11.3 kmh W -- 30.02 in1016.6 mb 0.00 in0.0 mm 0.00 in0.0 mm 0.00 in0.0 mm
03:25 PM 39.4°F4.1°C 26.3°F-3.2°C 59% 7.0 mph W11.3 kmh W -- 30.02 in1016.6 mb 0.00 in0.0 mm 0.00 in0.0 mm 0.00 in0.0 mm
03:30 PM 39.4°F4.1°C 26.3°F-3.2°C 59% 4.0 mph WSW6.4 kmh WSW -- 30.03 in1016.9 mb 0.00 in0.0 mm 0.00 in0.0 mm 0.00 in0.0 mm
03:35 PM 39.6°F4.2°C 26.9°F-2.8°C 60% 5.0 mph W8.0 kmh W -- 30.03 in1016.9 mb 0.00 in0.0 mm 0.00 in0.0 mm 0.00 in0.0 mm
03:40 PM 40.1°F4.5°C 26.9°F-2.8°C 59% 7.0 mph WSW11.3 kmh WSW -- 30.03 in1016.9 mb 0.00 in0.0 mm 0.00 in0.0 mm 0.00 in0.0 mm
03:45 PM 40.3°F4.6°C 26.3°F-3.2°C 57% 10.0 mph WSW16.1 kmh WSW -- 30.03 in1016.9 mb 0.00 in0.0 mm 0.00 in0.0 mm 0.00 in0.0 mm
03:50 PM 40.3°F4.6°C 25.4°F-3.7°C 55% 5.0 mph W8.0 kmh W 14.0 mph22.5 kmh 30.04 in1017.3 mb 0.00 in0.0 mm 0.00 in0.0 mm 0.00 in0.0 mm
03:55 PM 40.4°F4.7°C 25.5°F-3.6°C 55% 9.0 mph W14.5 kmh W 14.0 mph22.5 kmh 30.04 in1017.3 mb 0.00 in0.0 mm 0.00 in0.0 mm 0.00 in0.0 mm
04:00 PM 40.7°F4.8°C 25.4°F-3.7°C 54% 8.0 mph WSW12.9 kmh WSW -- 30.04 in1017.3 mb 0.00 in0.0 mm 0.00 in0.0 mm 0.00 in0.0 mm
04:05 PM 40.9°F4.9°C 25.6°F-3.6°C 54% 5.0 mph W8.0 kmh W -- 30.04 in1017.3 mb 0.00 in0.0 mm 0.00 in0.0 mm 0.00 in0.0 mm
04:10 PM 41.0°F5.0°C 25.6°F-3.6°C 54% 5.0 mph WSW8.0 kmh WSW -- 30.04 in1017.3 mb 0.00 in0.0 mm 0.00 in0.0 mm 0.00 in0.0 mm
04:15 PM 41.0°F5.0°C 25.6°F-3.6°C 54% 13.0 mph WSW20.9 kmh WSW -- 30.04 in1017.3 mb 0.00 in0.0 mm 0.00 in0.0 mm 0.00 in0.0 mm
04:20 PM 40.9°F4.9°C 25.6°F-3.6°C 54% 11.0 mph WSW17.7 kmh WSW -- 30.04 in1017.3 mb 0.00 in0.0 mm 0.00 in0.0 mm 0.00 in0.0 mm
04:25 PM 40.9°F4.9°C 25.1°F-3.8°C 53% 8.0 mph W12.9 kmh W -- 30.05 in1017.6 mb 0.00 in0.0 mm 0.00 in0.0 mm 0.00 in0.0 mm
04:30 PM 40.9°F4.9°C 25.1°F-3.8°C 53% 8.0 mph W12.9 kmh W -- 30.05 in1017.6 mb 0.00 in0.0 mm 0.00 in0.0 mm 0.00 in0.0 mm
04:35 PM 40.9°F4.9°C 25.6°F-3.6°C 54% 7.0 mph WSW11.3 kmh WSW -- 30.05 in1017.6 mb 0.00 in0.0 mm 0.00 in0.0 mm 0.00 in0.0 mm
04:40 PM 40.7°F4.8°C 25.4°F-3.7°C 54% 8.0 mph W12.9 kmh W 14.0 mph22.5 kmh 30.05 in1017.6 mb 0.00 in0.0 mm 0.00 in0.0 mm 0.00 in0.0 mm
04:45 PM 40.4°F4.7°C 25.1°F-3.8°C 54% 10.0 mph WSW16.1 kmh WSW 14.0 mph22.5 kmh 30.06 in1017.9 mb 0.00 in0.0 mm 0.00 in0.0 mm 0.00 in0.0 mm
04:50 PM 40.1°F4.5°C 25.2°F-3.8°C 55% 6.0 mph W9.7 kmh W -- 30.06 in1017.9 mb 0.00 in0.0 mm 0.00 in0.0 mm 0.00 in0.0 mm
04:55 PM 39.9°F4.4°C 25.1°F-3.8°C 55% 5.0 mph WSW8.0 kmh WSW -- 30.06 in1017.9 mb 0.00 in0.0 mm 0.00 in0.0 mm 0.00 in0.0 mm
05:00 PM 39.7°F4.3°C 25.3°F-3.7°C 56% 6.0 mph WSW9.7 kmh WSW -- 30.06 in1017.9 mb 0.00 in0.0 mm 0.00 in0.0 mm 0.00 in0.0 mm
05:05 PM 39.3°F4.1°C 24.9°F-3.9°C 56% 8.0 mph WSW12.9 kmh WSW -- 30.07 in1018.3 mb 0.00 in0.0 mm 0.00 in0.0 mm 0.00 in0.0 mm
05:10 PM 39.0°F3.9°C 25.1°F-3.8°C 57% 9.0 mph WSW14.5 kmh WSW -- 30.07 in1018.3 mb 0.00 in0.0 mm 0.00 in0.0 mm 0.00 in0.0 mm
05:15 PM 38.7°F3.7°C 24.8°F-4.0°C 57% 6.0 mph WSW9.7 kmh WSW -- 30.07 in1018.3 mb 0.00 in0.0 mm 0.00 in0.0 mm 0.00 in0.0 mm
05:20 PM 38.5°F3.6°C 24.6°F-4.1°C 57% 5.0 mph WSW8.0 kmh WSW -- 30.07 in1018.3 mb 0.00 in0.0 mm 0.00 in0.0 mm 0.00 in0.0 mm
05:25 PM 38.2°F3.4°C 24.7°F-4.1°C 58% 5.0 mph WSW8.0 kmh WSW -- 30.07 in1018.3 mb 0.00 in0.0 mm 0.00 in0.0 mm 0.00 in0.0 mm
05:30 PM 37.9°F3.3°C 24.9°F-3.9°C 59% 5.0 mph W8.0 kmh W 11.0 mph17.7 kmh 30.07 in1018.3 mb 0.00 in0.0 mm 0.00 in0.0 mm 0.00 in0.0 mm
05:35 PM 37.6°F3.1°C 24.6°F-4.1°C 59% 4.0 mph W6.4 kmh W 11.0 mph17.7 kmh 30.07 in1018.3 mb 0.00 in0.0 mm 0.00 in0.0 mm 0.00 in0.0 mm
05:40 PM 37.1°F2.8°C 24.5°F-4.2°C 60% 4.0 mph WSW6.4 kmh WSW -- 30.07 in1018.3 mb 0.00 in0.0 mm 0.00 in0.0 mm 0.00 in0.0 mm
05:45 PM 36.6°F2.6°C 24.4°F-4.2°C 61% 4.0 mph W6.4 kmh W -- 30.07 in1018.3 mb 0.00 in0.0 mm 0.00 in0.0 mm 0.00 in0.0 mm
05:50 PM 36.4°F2.4°C 24.3°F-4.3°C 61% 5.0 mph WSW8.0 kmh WSW -- 30.08 in1018.6 mb 0.00 in0.0 mm 0.00 in0.0 mm 0.00 in0.0 mm
05:55 PM 36.2°F2.3°C 24.5°F-4.2°C 62% 4.0 mph W6.4 kmh W -- 30.08 in1018.6 mb 0.00 in0.0 mm 0.00 in0.0 mm 0.00 in0.0 mm
06:00 PM 36.1°F2.3°C 24.4°F-4.2°C 62% 1.0 mph WSW1.6 kmh WSW -- 30.08 in1018.6 mb 0.00 in0.0 mm 0.00 in0.0 mm 0.00 in0.0 mm
06:05 PM 35.8°F2.1°C 24.1°F-4.4°C 62% 4.0 mph WSW6.4 kmh WSW -- 30.09 in1019.0 mb 0.00 in0.0 mm 0.00 in0.0 mm 0.00 in0.0 mm
06:10 PM 35.3°F1.8°C 24.0°F-4.4°C 63% 2.0 mph WSW3.2 kmh WSW -- 30.09 in1019.0 mb 0.00 in0.0 mm 0.00 in0.0 mm 0.00 in0.0 mm
06:15 PM 35.0°F1.7°C 24.1°F-4.4°C 64% Calm Calm -- 30.09 in1019.0 mb 0.00 in0.0 mm 0.00 in0.0 mm 0.00 in0.0 mm
06:20 PM 34.7°F1.5°C 23.8°F-4.6°C 64% Calm Calm 3.0 mph4.8 kmh 30.09 in1019.0 mb 0.00 in0.0 mm 0.00 in0.0 mm 0.00 in0.0 mm
06:25 PM 34.4°F1.3°C 23.5°F-4.7°C 64% Calm Calm 3.0 mph4.8 kmh 30.09 in1019.0 mb 0.00 in0.0 mm 0.00 in0.0 mm 0.00 in0.0 mm
06:30 PM 34.2°F1.2°C 23.3°F-4.8°C 64% Calm Calm -- 30.10 in1019.3 mb 0.00 in0.0 mm 0.00 in0.0 mm 0.00 in0.0 mm
06:35 PM 33.9°F1.1°C 23.4°F-4.8°C 65% Calm Calm -- 30.10 in1019.3 mb 0.00 in0.0 mm 0.00 in0.0 mm 0.00 in0.0 mm
06:40 PM 33.7°F0.9°C 23.2°F-4.9°C 65% Calm Calm -- 30.10 in1019.3 mb 0.00 in0.0 mm 0.00 in0.0 mm 0.00 in0.0 mm
06:45 PM 33.5°F0.8°C 23.0°F-5.0°C 65% Calm Calm -- 30.10 in1019.3 mb 0.00 in0.0 mm 0.00 in0.0 mm 0.00 in0.0 mm
06:50 PM 33.3°F0.7°C 23.2°F-4.9°C 66% Calm Calm -- 30.10 in1019.3 mb 0.00 in0.0 mm 0.00 in0.0 mm 0.00 in0.0 mm
06:55 PM 33.2°F0.7°C 23.1°F-4.9°C 66% Calm Calm -- 30.09 in1019.0 mb 0.00 in0.0 mm 0.00 in0.0 mm 0.00 in0.0 mm
07:00 PM 33.2°F0.7°C 23.1°F-4.9°C 66% Calm Calm -- 30.09 in1019.0 mb 0.00 in0.0 mm 0.00 in0.0 mm 0.00 in0.0 mm
07:05 PM 33.1°F0.6°C 23.0°F-5.0°C 66% Calm Calm -- 30.09 in1019.0 mb 0.00 in0.0 mm 0.00 in0.0 mm 0.00 in0.0 mm
07:10 PM 32.9°F0.5°C 23.2°F-4.9°C 67% Calm Calm -- 30.10 in1019.3 mb 0.00 in0.0 mm 0.00 in0.0 mm 0.00 in0.0 mm
07:15 PM 32.7°F0.4°C 23.0°F-5.0°C 67% Calm Calm -- 30.11 in1019.6 mb 0.00 in0.0 mm 0.00 in0.0 mm 0.00 in0.0 mm
07:20 PM 32.5°F0.3°C 23.1°F-4.9°C 68% Calm Calm -- 30.11 in1019.6 mb 0.00 in0.0 mm 0.00 in0.0 mm 0.00 in0.0 mm
07:25 PM 32.3°F0.2°C 22.9°F-5.1°C 68% Calm Calm -- 30.11 in1019.6 mb 0.00 in0.0 mm 0.00 in0.0 mm 0.00 in0.0 mm
07:30 PM 32.2°F0.1°C 22.8°F-5.1°C 68% Calm Calm -- 30.11 in1019.6 mb 0.00 in0.0 mm 0.00 in0.0 mm 0.00 in0.0 mm
07:35 PM 32.1°F0.1°C 22.7°F-5.2°C 68% Calm Calm -- 30.12 in1020.0 mb 0.00 in0.0 mm 0.00 in0.0 mm 0.00 in0.0 mm
07:40 PM 32.1°F0.1°C 22.7°F-5.2°C 68% Calm Calm -- 30.11 in1019.6 mb 0.00 in0.0 mm 0.00 in0.0 mm 0.00 in0.0 mm
07:45 PM 32.1°F0.1°C 22.7°F-5.2°C 68% Calm Calm -- 30.11 in1019.6 mb 0.00 in0.0 mm 0.00 in0.0 mm 0.00 in0.0 mm
07:50 PM 32.0°F0.0°C 22.7°F-5.2°C 68% Calm Calm -- 30.11 in1019.6 mb 0.00 in0.0 mm 0.00 in0.0 mm 0.00 in0.0 mm
07:55 PM 31.9°F-0.1°C 22.6°F-5.2°C 68% Calm Calm -- 30.12 in1020.0 mb 0.00 in0.0 mm 0.00 in0.0 mm 0.00 in0.0 mm
08:00 PM 31.9°F-0.1°C 22.6°F-5.2°C 68% Calm Calm -- 30.11 in1019.6 mb 0.00 in0.0 mm 0.00 in0.0 mm 0.00 in0.0 mm
08:05 PM 31.7°F-0.2°C 22.4°F-5.3°C 68% Calm Calm -- 30.12 in1020.0 mb 0.00 in0.0 mm 0.00 in0.0 mm 0.00 in0.0 mm
08:10 PM 31.6°F-0.2°C 22.6°F-5.2°C 69% Calm Calm -- 30.12 in1020.0 mb 0.00 in0.0 mm 0.00 in0.0 mm 0.00 in0.0 mm
08:15 PM 31.5°F-0.3°C 22.5°F-5.3°C 69% Calm Calm -- 30.12 in1020.0 mb 0.00 in0.0 mm 0.00 in0.0 mm 0.00 in0.0 mm
08:20 PM 31.5°F-0.3°C 22.5°F-5.3°C 69% Calm Calm -- 30.12 in1020.0 mb 0.00 in0.0 mm 0.00 in0.0 mm 0.00 in0.0 mm
08:25 PM 31.3°F-0.4°C 22.3°F-5.4°C 69% Calm Calm -- 30.13 in1020.3 mb 0.00 in0.0 mm 0.00 in0.0 mm 0.00 in0.0 mm
08:30 PM 31.2°F-0.4°C 22.2°F-5.4°C 69% Calm Calm -- 30.13 in1020.3 mb 0.00 in0.0 mm 0.00 in0.0 mm 0.00 in0.0 mm
08:35 PM 31.1°F-0.5°C 22.1°F-5.5°C 69% Calm Calm -- 30.13 in1020.3 mb 0.00 in0.0 mm 0.00 in0.0 mm 0.00 in0.0 mm
08:40 PM 31.1°F-0.5°C 22.1°F-5.5°C 69% Calm Calm -- 30.13 in1020.3 mb 0.00 in0.0 mm 0.00 in0.0 mm 0.00 in0.0 mm
08:45 PM 30.9°F-0.6°C 21.9°F-5.6°C 69% Calm Calm -- 30.13 in1020.3 mb 0.00 in0.0 mm 0.00 in0.0 mm 0.00 in0.0 mm
08:50 PM 30.6°F-0.8°C 22.0°F-5.6°C 70% Calm Calm -- 30.13 in1020.3 mb 0.00 in0.0 mm 0.00 in0.0 mm 0.00 in0.0 mm
08:55 PM 30.2°F-1.0°C 21.6°F-5.8°C 70% Calm Calm -- 30.13 in1020.3 mb 0.00 in0.0 mm 0.00 in0.0 mm 0.00 in0.0 mm
09:00 PM 30.2°F-1.0°C 21.9°F-5.6°C 71% Calm Calm -- 30.13 in1020.3 mb 0.00 in0.0 mm 0.00 in0.0 mm 0.00 in0.0 mm
09:05 PM 30.4°F-0.9°C 22.1°F-5.5°C 71% Calm Calm -- 30.13 in1020.3 mb 0.00 in0.0 mm 0.00 in0.0 mm 0.00 in0.0 mm
09:10 PM 30.5°F-0.8°C 22.2°F-5.4°C 71% Calm Calm -- 30.14 in1020.7 mb 0.00 in0.0 mm 0.00 in0.0 mm 0.00 in0.0 mm
09:15 PM 30.4°F-0.9°C 21.8°F-5.7°C 70% Calm Calm -- 30.14 in1020.7 mb 0.00 in0.0 mm 0.00 in0.0 mm 0.00 in0.0 mm
09:20 PM 30.1°F-1.1°C 21.9°F-5.6°C 71% Calm Calm -- 30.14 in1020.7 mb 0.00 in0.0 mm 0.00 in0.0 mm 0.00 in0.0 mm
09:25 PM 29.9°F-1.2°C 21.7°F-5.7°C 71% Calm Calm -- 30.14 in1020.7 mb 0.00 in0.0 mm 0.00 in0.0 mm 0.00 in0.0 mm
09:30 PM 29.8°F-1.2°C 21.6°F-5.8°C 71% Calm Calm -- 30.14 in1020.7 mb 0.00 in0.0 mm 0.00 in0.0 mm 0.00 in0.0 mm
09:35 PM 29.6°F-1.3°C 21.7°F-5.7°C 72% Calm Calm -- 30.15 in1021.0 mb 0.00 in0.0 mm 0.00 in0.0 mm 0.00 in0.0 mm
09:40 PM 29.7°F-1.3°C 21.8°F-5.7°C 72% Calm Calm -- 30.15 in1021.0 mb 0.00 in0.0 mm 0.00 in0.0 mm 0.00 in0.0 mm
09:45 PM 29.6°F-1.3°C 21.7°F-5.7°C 72% Calm Calm -- 30.15 in1021.0 mb 0.00 in0.0 mm 0.00 in0.0 mm 0.00 in0.0 mm
09:50 PM 29.5°F-1.4°C 21.6°F-5.8°C 72% Calm Calm -- 30.15 in1021.0 mb 0.00 in0.0 mm 0.00 in0.0 mm 0.00 in0.0 mm
09:55 PM 29.3°F-1.5°C 21.4°F-5.9°C 72% Calm Calm -- 30.16 in1021.3 mb 0.00 in0.0 mm 0.00 in0.0 mm 0.00 in0.0 mm
10:00 PM 29.1°F-1.6°C 21.2°F-6.0°C 72% Calm Calm -- 30.16 in1021.3 mb 0.00 in0.0 mm 0.00 in0.0 mm 0.00 in0.0 mm
10:05 PM 28.8°F-1.8°C 21.3°F-5.9°C 73% Calm Calm -- 30.17 in1021.7 mb 0.00 in0.0 mm 0.00 in0.0 mm 0.00 in0.0 mm
10:10 PM 28.7°F-1.8°C 21.2°F-6.0°C 73% Calm Calm -- 30.17 in1021.7 mb 0.00 in0.0 mm 0.00 in0.0 mm 0.00 in0.0 mm
10:15 PM 28.7°F-1.8°C 21.2°F-6.0°C 73% Calm Calm -- 30.17 in1021.7 mb 0.00 in0.0 mm 0.00 in0.0 mm 0.00 in0.0 mm
10:20 PM 28.7°F-1.8°C 21.5°F-5.8°C 74% Calm Calm -- 30.17 in1021.7 mb 0.00 in0.0 mm 0.00 in0.0 mm 0.00 in0.0 mm
10:25 PM 28.8°F-1.8°C 21.6°F-5.8°C 74% Calm Calm -- 30.17 in1021.7 mb 0.00 in0.0 mm 0.00 in0.0 mm 0.00 in0.0 mm
10:30 PM 28.8°F-1.8°C 21.6°F-5.8°C 74% Calm Calm -- 30.18 in1022.0 mb 0.00 in0.0 mm 0.00 in0.0 mm 0.00 in0.0 mm
10:35 PM 28.6°F-1.9°C 21.4°F-5.9°C 74% Calm Calm -- 30.18 in1022.0 mb 0.00 in0.0 mm 0.00 in0.0 mm 0.00 in0.0 mm
10:40 PM 28.4°F-2.0°C 20.9°F-6.2°C 73% Calm Calm -- 30.18 in1022.0 mb 0.00 in0.0 mm 0.00 in0.0 mm 0.00 in0.0 mm
10:45 PM 28.1°F-2.2°C 20.9°F-6.2°C 74% Calm Calm -- 30.18 in1022.0 mb 0.00 in0.0 mm 0.00 in0.0 mm 0.00 in0.0 mm
10:50 PM 27.8°F-2.3°C 20.6°F-6.3°C 74% Calm Calm -- 30.18 in1022.0 mb 0.00 in0.0 mm 0.00 in0.0 mm 0.00 in0.0 mm
10:55 PM 27.6°F-2.4°C 20.7°F-6.3°C 75% Calm Calm -- 30.18 in1022.0 mb 0.00 in0.0 mm 0.00 in0.0 mm 0.00 in0.0 mm
11:00 PM 27.5°F-2.5°C 20.6°F-6.3°C 75% Calm Calm -- 30.18 in1022.0 mb 0.00 in0.0 mm 0.00 in0.0 mm 0.00 in0.0 mm
11:05 PM 27.5°F-2.5°C 20.9°F-6.2°C 76% Calm Calm -- 30.18 in1022.0 mb 0.00 in0.0 mm 0.00 in0.0 mm 0.00 in0.0 mm
11:10 PM 27.6°F-2.4°C 21.0°F-6.1°C 76% Calm Calm -- 30.19 in1022.4 mb 0.00 in0.0 mm 0.00 in0.0 mm 0.00 in0.0 mm
11:15 PM 27.5°F-2.5°C 20.6°F-6.3°C 75% Calm Calm -- 30.19 in1022.4 mb 0.00 in0.0 mm 0.00 in0.0 mm 0.00 in0.0 mm
11:20 PM 27.4°F-2.6°C 20.8°F-6.2°C 76% Calm Calm -- 30.19 in1022.4 mb 0.00 in0.0 mm 0.00 in0.0 mm 0.00 in0.0 mm
11:25 PM 27.4°F-2.6°C 20.8°F-6.2°C 76% Calm Calm -- 30.20 in1022.7 mb 0.00 in0.0 mm 0.00 in0.0 mm 0.00 in0.0 mm
11:30 PM 27.6°F-2.4°C 21.0°F-6.1°C 76% Calm Calm -- 30.20 in1022.7 mb 0.00 in0.0 mm 0.00 in0.0 mm 0.00 in0.0 mm
11:35 PM 27.7°F-2.4°C 21.1°F-6.1°C 76% Calm Calm -- 30.20 in1022.7 mb 0.00 in0.0 mm 0.00 in0.0 mm 0.00 in0.0 mm
11:40 PM 28.0°F-2.2°C 21.1°F-6.1°C 75% Calm Calm -- 30.20 in1022.7 mb 0.00 in0.0 mm 0.00 in0.0 mm 0.00 in0.0 mm
11:45 PM 27.9°F-2.3°C 21.0°F-6.1°C 75% Calm Calm -- 30.20 in1022.7 mb 0.00 in0.0 mm 0.00 in0.0 mm 0.00 in0.0 mm
11:50 PM 27.8°F-2.3°C 20.9°F-6.2°C 75% Calm Calm -- 30.20 in1022.7 mb 0.00 in0.0 mm 0.00 in0.0 mm 0.00 in0.0 mm
11:55 PM 27.8°F-2.3°C 20.9°F-6.2°C 75% Calm Calm -- 30.20 in1022.7 mb 0.00 in0.0 mm 0.00 in0.0 mm 0.00 in0.0 mm